createdAt,value
2017-12-26T00:01:08.669Z,88.13
2017-12-26T00:03:36.198Z,88.47
2017-12-26T00:06:03.756Z,88.54
2017-12-26T00:08:31.302Z,88.38
2017-12-26T00:10:58.813Z,88.23
2017-12-26T00:13:26.667Z,88.07
2017-12-26T00:15:54.166Z,87.89
2017-12-26T00:18:21.705Z,87.91
2017-12-26T00:20:49.339Z,88.68
2017-12-26T00:23:16.844Z,87.80
2017-12-26T00:25:44.343Z,87.77
2017-12-26T00:28:12.301Z,88.09
2017-12-26T00:30:39.879Z,88.38
2017-12-26T00:33:07.447Z,89.76
2017-12-26T00:35:35.126Z,87.85
2017-12-26T00:38:02.631Z,89.31
2017-12-26T00:40:30.152Z,87.00
2017-12-26T00:42:57.694Z,89.53
2017-12-26T00:45:25.658Z,88.41
2017-12-26T00:47:53.210Z,87.89
2017-12-26T00:50:20.754Z,87.09
2017-12-26T00:52:48.278Z,87.71
2017-12-26T00:55:15.814Z,86.86
2017-12-26T00:57:43.382Z,87.49
2017-12-26T01:00:10.935Z,86.99
2017-12-26T01:02:38.530Z,87.13
2017-12-26T01:05:06.111Z,87.14
2017-12-26T01:07:33.631Z,87.88
2017-12-26T01:11:29.106Z,91.37
2017-12-26T01:13:56.645Z,89.49
2017-12-26T01:16:24.207Z,87.29
2017-12-26T01:18:51.913Z,87.39
2017-12-26T01:21:19.430Z,87.76
2017-12-26T01:23:46.965Z,88.88
2017-12-26T01:26:14.542Z,89.25
2017-12-26T01:28:42.146Z,88.74
2017-12-26T01:31:09.639Z,86.35
2017-12-26T01:33:37.168Z,90.09
2017-12-26T01:36:04.748Z,89.27
2017-12-26T01:38:32.293Z,86.71
2017-12-26T01:40:59.796Z,87.44
2017-12-26T01:43:27.403Z,86.85
2017-12-26T01:45:55.019Z,87.09
2017-12-26T01:48:22.603Z,86.70
2017-12-26T01:50:50.181Z,87.30
2017-12-26T01:53:17.762Z,87.21
2017-12-26T01:55:45.277Z,87.41
2017-12-26T01:58:12.796Z,89.96
2017-12-26T02:00:40.328Z,87.09
2017-12-26T02:03:07.897Z,88.11
2017-12-26T02:05:35.620Z,86.34
2017-12-26T02:08:03.611Z,89.81
2017-12-26T02:10:31.141Z,87.31
2017-12-26T02:12:58.703Z,87.52
2017-12-26T02:15:26.259Z,87.11
2017-12-26T02:17:53.848Z,87.58
2017-12-26T02:20:21.351Z,88.56
2017-12-26T02:22:48.880Z,92.26
2017-12-26T02:25:16.459Z,88.77
2017-12-26T02:27:44.026Z,88.87
2017-12-26T02:30:11.544Z,89.60
2017-12-26T02:32:39.076Z,90.65
2017-12-26T02:35:06.655Z,89.94
2017-12-26T02:37:34.192Z,89.47
2017-12-26T02:40:02.202Z,90.99
2017-12-26T02:42:29.726Z,89.84
2017-12-26T02:44:57.398Z,89.41
2017-12-26T02:47:25.071Z,90.95
2017-12-26T02:49:52.656Z,89.59
2017-12-26T02:52:20.219Z,90.70
2017-12-26T02:54:47.792Z,91.91
2017-12-26T02:57:15.691Z,92.39
2017-12-26T02:59:43.241Z,90.89
2017-12-26T03:02:10.853Z,90.96
2017-12-26T03:04:38.393Z,90.99
2017-12-26T03:07:06.312Z,90.58
2017-12-26T03:09:33.818Z,90.16
2017-12-26T03:12:01.352Z,89.96
2017-12-26T03:14:29.341Z,89.97
2017-12-26T03:16:56.877Z,90.35
2017-12-26T03:19:24.562Z,91.49
2017-12-26T03:21:52.491Z,91.62
2017-12-26T03:24:20.005Z,92.10
2017-12-26T03:26:47.512Z,90.70
2017-12-26T03:29:15.099Z,91.00
2017-12-26T03:31:42.634Z,91.09
2017-12-26T03:34:10.159Z,91.13
2017-12-26T03:36:37.879Z,91.44
2017-12-26T03:39:05.460Z,92.58
2017-12-26T03:41:33.032Z,90.92
2017-12-26T03:44:00.655Z,91.00
2017-12-26T03:46:28.201Z,91.12
2017-12-26T03:48:55.838Z,91.31
2017-12-26T03:51:23.724Z,90.26
2017-12-26T03:53:51.264Z,92.53
2017-12-26T03:56:18.809Z,94.06
2017-12-26T03:58:46.409Z,91.50
2017-12-26T04:01:13.976Z,90.95
2017-12-26T04:03:41.620Z,89.82
2017-12-26T04:06:09.134Z,90.15
2017-12-26T04:08:36.643Z,92.05
2017-12-26T04:11:04.270Z,89.89
2017-12-26T04:13:31.804Z,90.21
2017-12-26T04:15:59.442Z,92.97
2017-12-26T04:18:26.999Z,92.80
2017-12-26T04:20:54.503Z,93.19
2017-12-26T04:23:22.015Z,90.58
2017-12-26T04:25:49.571Z,92.01
2017-12-26T04:28:17.164Z,91.49
2017-12-26T04:30:44.671Z,90.39
2017-12-26T04:33:12.247Z,90.82
2017-12-26T04:35:40.135Z,90.35
2017-12-26T04:38:07.815Z,90.11
2017-12-26T04:40:35.360Z,90.08
2017-12-26T04:43:02.970Z,90.44
2017-12-26T04:45:30.512Z,91.73
2017-12-26T04:47:58.029Z,90.12
2017-12-26T04:50:25.539Z,90.41
2017-12-26T04:52:53.149Z,90.49
2017-12-26T04:55:20.708Z,90.52
2017-12-26T04:57:48.291Z,90.13
2017-12-26T05:00:15.964Z,91.32
2017-12-26T05:02:43.639Z,89.03
2017-12-26T05:05:11.169Z,89.93
2017-12-26T05:07:38.750Z,88.67
2017-12-26T05:10:06.247Z,87.85
2017-12-26T05:12:33.792Z,88.53
2017-12-26T05:15:01.333Z,88.27
2017-12-26T05:17:28.938Z,87.63
2017-12-26T05:19:56.464Z,87.26
2017-12-26T05:22:23.980Z,87.73
2017-12-26T05:24:51.565Z,86.65
2017-12-26T05:27:19.100Z,86.97
2017-12-26T05:29:46.683Z,87.21
2017-12-26T05:32:14.251Z,86.25
2017-12-26T05:34:41.787Z,86.44
2017-12-26T05:37:09.333Z,86.45
2017-12-26T05:39:36.896Z,86.38
2017-12-26T05:42:04.430Z,86.42
2017-12-26T05:44:31.970Z,85.60
2017-12-26T05:46:59.552Z,86.27
2017-12-26T05:49:27.222Z,86.59
2017-12-26T05:51:54.817Z,86.19
2017-12-26T05:54:22.331Z,85.81
2017-12-26T05:56:49.865Z,85.50
2017-12-26T05:59:17.403Z,86.89
2017-12-26T06:01:44.956Z,85.81
2017-12-26T06:04:12.528Z,85.74
2017-12-26T06:06:40.120Z,85.54
2017-12-26T06:09:07.660Z,85.94
2017-12-26T06:11:35.248Z,86.08
2017-12-26T06:14:02.791Z,86.75
2017-12-26T06:16:30.344Z,87.27
2017-12-26T06:18:57.934Z,87.49
2017-12-26T06:21:25.497Z,87.03
2017-12-26T06:23:53.015Z,87.44
2017-12-26T06:26:20.520Z,87.81
2017-12-26T06:28:48.094Z,88.35
2017-12-26T06:31:15.703Z,88.55
2017-12-26T06:33:43.240Z,88.93
2017-12-26T06:36:11.561Z,90.43
2017-12-26T06:38:39.063Z,90.64
2017-12-26T06:41:06.634Z,90.17
2017-12-26T06:43:34.553Z,90.52
2017-12-26T06:46:02.068Z,91.96
2017-12-26T06:48:29.600Z,91.41
2017-12-26T06:50:57.172Z,91.71
2017-12-26T06:53:24.804Z,91.73
2017-12-26T06:55:52.344Z,92.82
2017-12-26T06:58:19.870Z,93.69
2017-12-26T07:00:47.413Z,94.67
2017-12-26T07:03:15.031Z,95.14
2017-12-26T07:05:42.548Z,94.67
2017-12-26T07:08:10.098Z,93.60
2017-12-26T07:10:37.651Z,94.69
2017-12-26T07:13:05.159Z,94.24
2017-12-26T07:15:33.133Z,95.15
2017-12-26T07:18:00.710Z,95.21
2017-12-26T07:20:34.487Z,93.62
2017-12-26T07:23:02.001Z,93.73
2017-12-26T07:25:29.515Z,94.73
2017-12-26T07:27:57.831Z,94.53
2017-12-26T07:30:25.384Z,93.22
2017-12-26T07:32:52.929Z,94.18
2017-12-26T07:35:20.500Z,94.18
2017-12-26T07:37:48.028Z,94.02
2017-12-26T07:40:15.564Z,95.26
2017-12-26T07:42:43.168Z,94.51
2017-12-26T07:45:10.685Z,93.52
2017-12-26T07:47:38.626Z,93.79
2017-12-26T07:50:06.156Z,93.49
2017-12-26T07:52:33.710Z,93.24
2017-12-26T07:55:01.263Z,93.32
2017-12-26T07:57:29.012Z,93.47
2017-12-26T07:59:56.546Z,93.35
2017-12-26T08:02:24.131Z,93.37
2017-12-26T08:04:52.040Z,93.38
2017-12-26T08:07:19.539Z,94.10
2017-12-26T08:09:47.188Z,93.92
2017-12-26T08:12:14.859Z,93.84
2017-12-26T08:14:42.518Z,94.19
2017-12-26T08:17:10.046Z,93.69
2017-12-26T08:19:37.589Z,93.86
2017-12-26T08:22:05.126Z,94.71
2017-12-26T08:24:33.447Z,93.73
2017-12-26T08:27:00.981Z,94.07
2017-12-26T08:29:28.526Z,92.59
2017-12-26T08:31:56.076Z,93.84
2017-12-26T08:34:23.641Z,92.35
2017-12-26T08:36:51.219Z,92.50
2017-12-26T08:39:18.744Z,91.83
2017-12-26T08:41:46.252Z,92.09
2017-12-26T08:44:13.776Z,92.71
2017-12-26T08:46:41.407Z,91.59
2017-12-26T08:49:09.040Z,91.69
2017-12-26T08:51:36.560Z,91.97
2017-12-26T08:54:04.130Z,92.70
2017-12-26T08:56:31.716Z,93.02
2017-12-26T08:58:59.256Z,92.41
2017-12-26T09:01:26.817Z,93.15
2017-12-26T09:03:54.346Z,94.05
2017-12-26T09:06:21.843Z,93.32
2017-12-26T09:08:49.339Z,94.12
2017-12-26T09:11:16.936Z,93.18
2017-12-26T09:13:44.459Z,93.46
2017-12-26T09:16:12.013Z,93.54
2017-12-26T09:18:39.955Z,93.12
2017-12-26T09:21:07.518Z,93.42
2017-12-26T09:23:35.023Z,92.77
2017-12-26T09:26:02.592Z,92.28
2017-12-26T09:28:30.188Z,94.20
2017-12-26T09:30:57.763Z,93.20
2017-12-26T09:33:25.390Z,91.34
2017-12-26T09:35:52.969Z,93.14
2017-12-26T09:38:20.568Z,92.71
2017-12-26T09:40:48.114Z,92.22
2017-12-26T09:43:15.775Z,91.63
2017-12-26T09:45:43.464Z,92.85
2017-12-26T09:48:10.997Z,90.07
2017-12-26T09:50:38.949Z,90.74
2017-12-26T09:53:06.486Z,91.10
2017-12-26T09:55:34.004Z,91.32
2017-12-26T09:58:01.688Z,91.96
2017-12-26T10:00:29.292Z,90.95
2017-12-26T10:02:56.803Z,90.50
2017-12-26T10:05:24.374Z,90.16
2017-12-26T10:07:51.886Z,90.64
2017-12-26T10:10:19.392Z,90.67
2017-12-26T10:12:47.304Z,89.51
2017-12-26T10:15:14.820Z,89.55
2017-12-26T10:17:42.359Z,90.03
2017-12-26T10:20:09.883Z,90.69
2017-12-26T10:22:37.464Z,90.28
2017-12-26T10:25:05.245Z,89.73
2017-12-26T10:27:32.839Z,91.09
2017-12-26T10:30:00.471Z,90.56
2017-12-26T10:32:27.990Z,90.94
2017-12-26T10:34:55.524Z,89.12
2017-12-26T10:37:23.080Z,87.58
2017-12-26T10:39:50.658Z,89.51
2017-12-26T10:42:18.211Z,87.69
2017-12-26T10:44:45.740Z,90.06
2017-12-26T10:47:13.241Z,88.90
2017-12-26T10:49:41.078Z,88.32
2017-12-26T10:52:08.675Z,88.48
2017-12-26T10:54:36.243Z,86.77
2017-12-26T10:57:03.843Z,86.79
2017-12-26T10:59:31.546Z,85.71
2017-12-26T11:01:59.066Z,86.90
2017-12-26T11:04:26.588Z,85.91
2017-12-26T11:06:54.126Z,86.40
2017-12-26T11:09:21.689Z,85.64
2017-12-26T11:11:49.238Z,86.61
2017-12-26T11:14:16.878Z,86.37
2017-12-26T11:16:44.488Z,86.01
2017-12-26T11:19:12.044Z,86.32
2017-12-26T11:21:39.608Z,85.62
2017-12-26T11:24:07.140Z,86.11
2017-12-26T11:26:34.680Z,84.86
2017-12-26T11:29:02.221Z,85.34
2017-12-26T11:31:29.818Z,84.37
2017-12-26T11:33:57.413Z,84.06
2017-12-26T11:36:24.980Z,84.35
2017-12-26T11:38:52.545Z,82.81
2017-12-26T11:41:20.592Z,83.28
2017-12-26T11:43:48.127Z,83.30
2017-12-26T11:46:15.682Z,84.60
2017-12-26T11:48:43.216Z,85.51
2017-12-26T11:51:10.821Z,84.46
2017-12-26T11:53:38.353Z,84.87
2017-12-26T11:56:05.903Z,85.20
2017-12-26T11:58:33.537Z,87.15
2017-12-26T12:01:01.073Z,86.98
2017-12-26T12:03:29.099Z,88.83
2017-12-26T12:05:56.603Z,89.15
2017-12-26T12:08:24.159Z,88.91
2017-12-26T12:10:51.711Z,88.79
2017-12-26T12:13:19.388Z,89.08
2017-12-26T12:15:46.974Z,88.97
2017-12-26T12:18:14.556Z,88.67
2017-12-26T12:20:42.088Z,88.19
2017-12-26T12:23:09.626Z,87.71
2017-12-26T12:25:37.196Z,86.75
2017-12-26T12:28:04.700Z,86.81
2017-12-26T12:30:32.245Z,85.93
2017-12-26T12:32:59.836Z,83.72
2017-12-26T12:35:27.434Z,83.50
2017-12-26T12:37:54.987Z,80.94
2017-12-26T12:40:22.555Z,79.82
2017-12-26T12:42:50.113Z,80.83
2017-12-26T12:45:17.672Z,78.79
2017-12-26T12:47:45.201Z,78.99
2017-12-26T12:50:12.773Z,79.32
2017-12-26T12:52:40.283Z,81.46
2017-12-26T12:55:07.830Z,81.62
2017-12-26T12:57:35.501Z,81.01
2017-12-26T13:00:03.072Z,80.08
2017-12-26T13:02:30.637Z,80.00
2017-12-26T13:04:58.196Z,79.90
2017-12-26T13:07:25.794Z,80.51
2017-12-26T13:09:53.466Z,79.72
2017-12-26T13:12:20.967Z,80.14
2017-12-26T13:14:49.011Z,79.40
2017-12-26T13:17:16.537Z,80.72
2017-12-26T13:19:44.094Z,79.94
2017-12-26T13:22:11.669Z,81.11
2017-12-26T13:24:39.192Z,79.63
2017-12-26T13:27:06.793Z,78.44
2017-12-26T13:29:34.767Z,78.79
2017-12-26T13:32:02.343Z,78.02
2017-12-26T13:34:29.868Z,78.64
2017-12-26T13:36:57.421Z,79.10
2017-12-26T13:39:25.166Z,78.33
2017-12-26T13:41:52.667Z,79.07
2017-12-26T13:44:20.278Z,79.54
2017-12-26T13:46:47.875Z,79.92
2017-12-26T13:49:15.408Z,79.33
2017-12-26T13:51:42.940Z,76.68
2017-12-26T13:54:10.481Z,77.55
2017-12-26T13:56:38.054Z,77.74
2017-12-26T13:59:05.551Z,77.92
2017-12-26T14:01:33.109Z,78.76
2017-12-26T14:04:00.620Z,79.84
2017-12-26T14:06:28.182Z,77.31
2017-12-26T14:08:55.827Z,77.22
2017-12-26T14:11:23.332Z,78.52
2017-12-26T14:13:50.900Z,79.27
2017-12-26T14:16:18.474Z,79.27
2017-12-26T14:18:45.985Z,77.64
2017-12-26T14:21:13.560Z,78.14
2017-12-26T14:23:41.175Z,78.93
2017-12-26T14:26:08.760Z,76.48
2017-12-26T14:28:36.328Z,76.98
2017-12-26T14:31:03.869Z,76.70
2017-12-26T14:33:31.469Z,78.78
2017-12-26T14:35:59.000Z,78.60
2017-12-26T14:38:26.541Z,78.03
2017-12-26T14:40:54.137Z,77.86
2017-12-26T14:43:21.727Z,77.08
2017-12-26T14:45:49.333Z,77.72
2017-12-26T14:48:16.933Z,78.51
2017-12-26T14:50:44.483Z,79.05
2017-12-26T14:53:11.988Z,79.88
2017-12-26T14:55:39.535Z,79.72
2017-12-26T14:58:07.037Z,78.16
2017-12-26T15:00:34.574Z,79.37
2017-12-26T15:03:02.173Z,80.73
2017-12-26T15:05:29.682Z,79.03
2017-12-26T15:07:57.232Z,80.16
2017-12-26T15:10:24.954Z,81.06
2017-12-26T15:12:52.637Z,80.96
2017-12-26T15:15:20.207Z,81.92
2017-12-26T15:17:47.747Z,81.04
2017-12-26T15:20:15.290Z,81.23
2017-12-26T15:22:42.875Z,80.41
2017-12-26T15:25:10.417Z,80.54
2017-12-26T15:27:38.077Z,80.76
2017-12-26T15:30:05.617Z,80.33
2017-12-26T15:32:33.145Z,80.39
2017-12-26T15:35:00.701Z,81.62
2017-12-26T15:37:28.236Z,82.48
2017-12-26T15:39:55.788Z,81.87
2017-12-26T15:42:23.328Z,82.12
2017-12-26T15:44:51.330Z,82.28
2017-12-26T15:47:18.877Z,82.80
2017-12-26T15:49:46.412Z,83.12
2017-12-26T15:52:14.367Z,83.14
2017-12-26T15:54:41.869Z,84.21
2017-12-26T15:57:09.408Z,83.52
2017-12-26T15:59:37.131Z,84.59
2017-12-26T16:02:04.698Z,85.02
2017-12-26T16:04:32.198Z,84.11
2017-12-26T16:07:00.200Z,84.44
2017-12-26T16:09:27.762Z,84.40
2017-12-26T16:11:55.304Z,84.75
2017-12-26T16:14:22.907Z,84.05
2017-12-26T16:16:50.439Z,83.83
2017-12-26T16:19:18.025Z,83.86
2017-12-26T16:21:45.708Z,84.31
2017-12-26T16:24:13.243Z,84.31
2017-12-26T16:26:40.948Z,83.76
2017-12-26T16:29:08.494Z,84.66
2017-12-26T16:31:36.039Z,84.05
2017-12-26T16:34:03.600Z,83.58
2017-12-26T16:36:31.149Z,84.18
2017-12-26T16:38:58.673Z,84.23
2017-12-26T16:41:26.233Z,85.59
2017-12-26T16:43:53.764Z,86.01
2017-12-26T16:46:21.300Z,84.54
2017-12-26T16:48:48.854Z,85.29
2017-12-26T16:51:16.359Z,85.59
2017-12-26T16:53:43.864Z,86.48
2017-12-26T16:56:11.530Z,86.58
2017-12-26T16:58:39.118Z,86.67
2017-12-26T17:01:06.676Z,87.21
2017-12-26T17:03:34.203Z,87.35
2017-12-26T17:06:02.103Z,87.58
2017-12-26T17:08:29.667Z,87.49
2017-12-26T17:10:57.205Z,88.07
2017-12-26T17:13:24.736Z,87.61
2017-12-26T17:15:52.284Z,87.71
2017-12-26T17:18:19.820Z,87.97
2017-12-26T17:20:47.494Z,87.25
2017-12-26T17:23:15.024Z,86.47
2017-12-26T17:25:42.564Z,87.29
2017-12-26T17:28:10.861Z,87.24
2017-12-26T17:30:38.366Z,87.27
2017-12-26T17:33:05.904Z,88.10
2017-12-26T17:35:33.492Z,88.77
2017-12-26T17:38:01.067Z,89.05
2017-12-26T17:43:12.015Z,89.41
2017-12-26T17:45:39.566Z,89.75
2017-12-26T17:48:07.096Z,90.13
2017-12-26T17:50:34.656Z,90.24
2017-12-26T17:53:02.170Z,90.31
2017-12-26T17:55:29.697Z,90.38
2017-12-26T17:57:57.265Z,90.67
2017-12-26T18:00:24.810Z,90.87
2017-12-26T18:02:52.342Z,91.28
2017-12-26T18:05:19.898Z,91.58
2017-12-26T18:07:47.441Z,92.18
2017-12-26T18:10:14.955Z,91.68
2017-12-26T18:12:42.568Z,91.16
2017-12-26T18:15:10.077Z,90.12
2017-12-26T18:17:37.584Z,89.87
2017-12-26T18:20:05.296Z,89.61
2017-12-26T18:22:32.820Z,88.91
2017-12-26T18:25:00.397Z,88.22
2017-12-26T18:27:27.932Z,88.51
2017-12-26T18:29:55.434Z,87.84
2017-12-26T18:32:23.008Z,88.12
2017-12-26T18:34:50.538Z,88.12
2017-12-26T18:37:18.202Z,88.18
2017-12-26T18:39:45.771Z,88.12
2017-12-26T18:42:13.312Z,88.29
2017-12-26T18:44:40.900Z,89.11
2017-12-26T18:47:08.468Z,88.58
2017-12-26T18:49:35.985Z,88.86
2017-12-26T18:52:03.586Z,89.18
2017-12-26T18:54:31.137Z,89.98
2017-12-26T18:56:58.735Z,89.40
2017-12-26T18:59:26.239Z,90.09
2017-12-26T19:01:53.773Z,89.15
2017-12-26T19:04:21.380Z,88.85
2017-12-26T19:06:48.978Z,88.69
2017-12-26T19:09:16.488Z,87.80
2017-12-26T19:11:44.008Z,87.95
2017-12-26T19:14:11.527Z,88.00
2017-12-26T19:16:39.180Z,87.64
2017-12-26T19:19:06.746Z,88.02
2017-12-26T19:21:34.251Z,87.17
2017-12-26T19:24:01.800Z,87.05
2017-12-26T19:26:29.331Z,87.60
2017-12-26T19:28:56.826Z,87.49
2017-12-26T19:31:24.407Z,87.18
2017-12-26T19:33:51.939Z,86.42
2017-12-26T19:36:19.435Z,86.40
2017-12-26T19:38:47.226Z,86.39
2017-12-26T19:41:14.741Z,86.64
2017-12-26T19:43:42.284Z,86.60
2017-12-26T19:46:10.057Z,85.83
2017-12-26T19:48:37.740Z,86.57
2017-12-26T19:51:05.390Z,86.60
2017-12-26T19:53:33.073Z,86.38
2017-12-26T19:56:00.590Z,86.90
2017-12-26T19:58:28.160Z,86.85
2017-12-26T20:00:55.736Z,86.74
2017-12-26T20:03:24.164Z,88.28
2017-12-26T20:05:51.734Z,87.88
2017-12-26T20:08:19.284Z,88.43
2017-12-26T20:10:46.966Z,88.88
2017-12-26T20:13:14.485Z,89.39
2017-12-26T20:15:42.269Z,89.68
2017-12-26T20:18:09.775Z,90.23
2017-12-26T20:20:37.398Z,90.45
2017-12-26T20:23:05.028Z,90.61
2017-12-26T20:25:32.596Z,90.62
2017-12-26T20:28:05.858Z,90.71
2017-12-26T20:30:33.418Z,90.94
2017-12-26T20:33:00.970Z,90.22
2017-12-26T20:35:28.588Z,90.81
2017-12-26T20:37:56.161Z,91.23
2017-12-26T20:40:23.769Z,91.03
2017-12-26T20:42:51.352Z,91.50
2017-12-26T20:45:18.862Z,91.52
2017-12-26T20:47:46.378Z,91.58
2017-12-26T20:50:13.973Z,91.54
2017-12-26T20:52:41.699Z,91.68
2017-12-26T20:55:09.316Z,91.69
2017-12-26T20:57:36.831Z,91.48
2017-12-26T21:00:04.513Z,91.67
2017-12-26T21:02:32.140Z,91.48
2017-12-26T21:04:59.647Z,91.65
2017-12-26T21:07:27.234Z,91.86
2017-12-26T21:09:54.805Z,91.94
2017-12-26T21:12:22.329Z,91.97
2017-12-26T21:14:49.876Z,92.24
2017-12-26T21:17:17.532Z,91.99
2017-12-26T21:19:45.926Z,92.10
2017-12-26T21:22:13.532Z,91.48
2017-12-26T21:24:41.068Z,92.07
2017-12-26T21:27:08.728Z,91.98
2017-12-26T21:29:36.323Z,92.00
2017-12-26T21:32:03.832Z,92.62
2017-12-26T21:34:31.415Z,92.37
2017-12-26T21:36:59.012Z,92.71
2017-12-26T21:39:26.587Z,92.77
2017-12-26T21:41:54.143Z,92.75
2017-12-26T21:44:21.689Z,92.33
2017-12-26T21:46:49.291Z,92.02
2017-12-26T21:49:16.971Z,92.36
2017-12-26T21:51:44.507Z,92.36
2017-12-26T21:54:12.149Z,91.60
2017-12-26T21:56:39.676Z,91.56
2017-12-26T21:59:07.217Z,91.37
2017-12-26T22:01:34.816Z,91.26
2017-12-26T22:04:02.388Z,91.05
2017-12-26T22:06:29.957Z,91.38
2017-12-26T22:08:57.520Z,91.44
2017-12-26T22:11:25.053Z,91.38
2017-12-26T22:13:52.628Z,91.04
2017-12-26T22:16:20.243Z,91.12
2017-12-26T22:18:47.775Z,90.83
2017-12-26T22:21:15.318Z,90.61
2017-12-26T22:23:43.014Z,89.79
2017-12-26T22:26:10.528Z,90.09
2017-12-26T22:28:38.061Z,89.53
2017-12-26T22:31:05.624Z,89.78
2017-12-26T22:33:33.152Z,89.75
2017-12-26T22:36:00.664Z,90.12
2017-12-26T22:38:28.290Z,89.66
2017-12-26T22:40:55.932Z,89.86
2017-12-26T22:43:24.393Z,89.95
2017-12-26T22:45:51.982Z,90.03
2017-12-26T22:48:19.507Z,90.21
2017-12-26T22:50:47.020Z,90.31
2017-12-26T22:53:14.622Z,90.37
2017-12-26T22:55:42.208Z,89.79
2017-12-26T22:58:09.708Z,90.29
2017-12-26T23:00:37.284Z,89.91
2017-12-26T23:03:04.871Z,89.87
2017-12-26T23:05:32.393Z,89.36
2017-12-26T23:07:59.936Z,89.87
2017-12-26T23:10:27.467Z,89.67
2017-12-26T23:12:54.996Z,89.65
2017-12-26T23:18:29.580Z,89.55
2017-12-26T23:21:00.071Z,89.58
2017-12-26T23:23:33.246Z,89.60
2017-12-26T23:29:07.518Z,89.28
2017-12-26T23:31:40.733Z,89.57
2017-12-26T23:34:14.032Z,89.78
2017-12-26T23:36:47.228Z,89.67
2017-12-26T23:39:20.261Z,89.56
2017-12-26T23:41:53.380Z,89.81
2017-12-26T23:44:26.481Z,90.02
2017-12-26T23:46:59.827Z,90.02
2017-12-26T23:52:36.948Z,89.84
2017-12-26T23:55:10.027Z,89.95
2017-12-26T23:57:43.172Z,89.77
